createdAt,value
2022-08-03T00:02:19.676Z,79.74
2022-08-03T00:04:48.188Z,79.96
2022-08-03T00:07:16.941Z,79.98
2022-08-03T00:09:44.808Z,79.97
2022-08-03T00:12:12.673Z,80.05
2022-08-03T00:14:40.387Z,80.02
2022-08-03T00:17:08.713Z,80.22
2022-08-03T00:19:36.405Z,80.51
2022-08-03T00:22:04.166Z,80.62
2022-08-03T00:24:31.948Z,80.83
2022-08-03T00:26:59.719Z,80.77
2022-08-03T00:29:27.691Z,80.85
2022-08-03T00:32:00.318Z,80.89
2022-08-03T00:34:36.204Z,80.81
2022-08-03T00:37:16.692Z,81.01
2022-08-03T00:39:46.244Z,80.88
2022-08-03T00:42:14.504Z,81.02
2022-08-03T00:44:46.034Z,81.13
2022-08-03T00:47:13.773Z,81.03
2022-08-03T00:49:42.609Z,81.14
2022-08-03T00:52:11.683Z,81.09
2022-08-03T00:54:40.087Z,81.40
2022-08-03T00:57:08.465Z,81.19
2022-08-03T00:59:38.207Z,81.24
2022-08-03T01:02:06.504Z,81.33
2022-08-03T01:04:34.212Z,81.28
2022-08-03T01:07:46.658Z,81.27
2022-08-03T01:10:54.497Z,81.65
2022-08-03T01:14:01.433Z,81.47
2022-08-03T01:17:02.028Z,81.60
2022-08-03T01:20:05.077Z,81.81
2022-08-03T01:23:31.357Z,82.03
2022-08-03T01:26:25.056Z,82.35
2022-08-03T01:29:18.847Z,82.21
2022-08-03T01:32:59.744Z,82.19
2022-08-03T01:35:03.685Z,82.05
2022-08-03T01:37:48.119Z,82.36
2022-08-03T01:40:19.551Z,82.00
2022-08-03T01:42:50.612Z,82.15
2022-08-03T01:45:19.759Z,82.05
2022-08-03T01:47:49.974Z,81.99
2022-08-03T01:50:24.117Z,82.11
2022-08-03T01:52:54.480Z,82.10
2022-08-03T01:55:24.389Z,82.14
2022-08-03T01:58:06.126Z,81.95
2022-08-03T02:00:39.776Z,81.86
2022-08-03T02:03:09.676Z,81.78
2022-08-03T02:05:40.102Z,81.80
2022-08-03T02:08:13.762Z,81.74
2022-08-03T02:10:43.512Z,81.68
2022-08-03T02:13:12.643Z,81.60
2022-08-03T02:15:42.982Z,81.49
2022-08-03T02:18:13.341Z,81.26
2022-08-03T02:20:44.498Z,81.28
2022-08-03T02:23:14.838Z,81.11
2022-08-03T02:25:49.761Z,81.08
2022-08-03T02:28:20.986Z,80.96
2022-08-03T02:30:53.922Z,80.99
2022-08-03T02:33:31.704Z,81.12
2022-08-03T02:36:02.084Z,81.00
2022-08-03T02:38:34.870Z,80.75
2022-08-03T02:41:10.549Z,80.74
2022-08-03T02:44:06.271Z,80.74
2022-08-03T02:46:34.188Z,80.76
2022-08-03T02:49:41.127Z,80.67
2022-08-03T02:51:54.372Z,80.58
2022-08-03T02:54:25.226Z,80.59
2022-08-03T02:56:56.787Z,80.73
2022-08-03T02:59:26.360Z,80.79
2022-08-03T03:01:55.638Z,80.75
2022-08-03T03:04:25.690Z,80.65
2022-08-03T03:07:01.679Z,80.54
2022-08-03T03:09:41.567Z,80.49
2022-08-03T03:12:14.083Z,80.43
2022-08-03T03:14:42.358Z,80.43
2022-08-03T03:17:12.327Z,80.44
2022-08-03T03:19:41.518Z,80.57
2022-08-03T03:22:10.574Z,80.48
2022-08-03T03:24:41.573Z,80.42
2022-08-03T03:27:09.793Z,80.46
2022-08-03T03:29:39.405Z,80.36
2022-08-03T03:32:09.134Z,80.37
2022-08-03T03:34:41.059Z,80.33
2022-08-03T03:37:12.183Z,80.41
2022-08-03T03:39:40.049Z,80.34
2022-08-03T03:42:07.893Z,80.34
2022-08-03T03:44:35.790Z,80.35
2022-08-03T03:47:04.184Z,80.32
2022-08-03T03:49:32.613Z,80.40
2022-08-03T03:52:00.409Z,80.35
2022-08-03T03:54:44.023Z,80.40
2022-08-03T03:57:13.655Z,80.39
2022-08-03T03:59:42.858Z,80.51
2022-08-03T04:02:12.376Z,80.55
2022-08-03T04:04:59.027Z,80.63
2022-08-03T04:07:46.346Z,80.73
2022-08-03T04:10:38.693Z,80.81
2022-08-03T04:13:13.546Z,80.94
2022-08-03T04:15:42.258Z,80.94
2022-08-03T04:18:15.578Z,80.87
2022-08-03T04:20:48.805Z,80.90
2022-08-03T04:23:24.569Z,81.04
2022-08-03T04:25:56.261Z,80.95
2022-08-03T04:28:30.793Z,81.02
2022-08-03T04:31:01.597Z,81.16
2022-08-03T04:33:33.502Z,81.30
2022-08-03T04:36:08.062Z,81.33
2022-08-03T04:38:58.042Z,81.36
2022-08-03T04:41:27.761Z,81.73
2022-08-03T04:44:00.268Z,81.80
2022-08-03T04:46:39.213Z,81.88
2022-08-03T04:49:10.433Z,81.93
2022-08-03T04:51:40.558Z,82.17
2022-08-03T04:54:13.309Z,82.70
2022-08-03T04:56:41.957Z,82.70
2022-08-03T04:59:10.753Z,82.87
2022-08-03T05:01:41.520Z,83.14
2022-08-03T05:04:09.810Z,83.27
2022-08-03T05:06:41.408Z,83.49
2022-08-03T05:09:16.202Z,83.53
2022-08-03T05:12:05.563Z,83.63
2022-08-03T05:14:34.736Z,84.00
2022-08-03T05:17:02.558Z,83.97
2022-08-03T05:19:30.589Z,84.14
2022-08-03T05:21:59.575Z,84.04
2022-08-03T05:24:27.422Z,84.26
2022-08-03T05:26:55.126Z,84.57
2022-08-03T05:29:22.943Z,84.34
2022-08-03T05:31:50.665Z,84.21
2022-08-03T05:34:18.349Z,84.25
2022-08-03T05:36:46.074Z,84.16
2022-08-03T05:39:13.863Z,84.03
2022-08-03T05:41:41.719Z,84.16
2022-08-03T05:44:09.454Z,84.04
2022-08-03T05:46:37.193Z,84.08
2022-08-03T05:49:05.080Z,84.00
2022-08-03T05:51:32.871Z,83.93
2022-08-03T05:54:00.631Z,83.82
2022-08-03T05:56:28.611Z,83.89
2022-08-03T05:58:56.376Z,83.81
2022-08-03T06:01:24.492Z,83.86
2022-08-03T06:03:52.812Z,83.81
2022-08-03T06:06:20.621Z,83.73
2022-08-03T06:08:48.899Z,83.68
2022-08-03T06:11:16.852Z,83.52
2022-08-03T06:13:44.864Z,83.43
2022-08-03T06:16:12.689Z,83.37
2022-08-03T06:18:40.525Z,83.56
2022-08-03T06:21:14.694Z,83.40
2022-08-03T06:23:54.306Z,83.28
2022-08-03T06:26:27.917Z,83.30
2022-08-03T06:28:56.190Z,83.38
2022-08-03T06:31:32.809Z,83.23
2022-08-03T06:34:33.305Z,82.88
2022-08-03T06:36:58.593Z,82.87
2022-08-03T06:39:29.498Z,82.95
2022-08-03T06:41:57.956Z,82.74
2022-08-03T06:44:26.149Z,82.70
2022-08-03T06:46:53.976Z,82.39
2022-08-03T06:49:21.974Z,82.01
2022-08-03T06:52:06.263Z,81.91
2022-08-03T06:54:35.765Z,81.95
2022-08-03T06:57:04.238Z,81.94
2022-08-03T07:00:06.135Z,82.19
2022-08-03T07:02:20.396Z,82.24
2022-08-03T07:04:49.141Z,82.17
2022-08-03T07:07:17.780Z,82.01
2022-08-03T07:09:55.670Z,82.16
2022-08-03T07:12:30.287Z,82.02
2022-08-03T07:15:01.757Z,82.01
2022-08-03T07:17:32.657Z,82.01
2022-08-03T07:20:03.619Z,81.75
2022-08-03T07:22:31.460Z,81.30
2022-08-03T07:24:59.576Z,81.25
2022-08-03T07:27:28.550Z,80.99
2022-08-03T07:29:58.488Z,80.68
2022-08-03T07:32:27.022Z,80.41
2022-08-03T07:34:58.470Z,80.15
2022-08-03T07:37:29.942Z,79.96
2022-08-03T07:39:58.455Z,79.92
2022-08-03T07:42:28.195Z,79.89
2022-08-03T07:44:57.225Z,79.74
2022-08-03T07:47:35.416Z,79.42
2022-08-03T07:50:06.511Z,79.36
2022-08-03T07:52:48.620Z,79.11
2022-08-03T07:55:22.347Z,78.89
2022-08-03T07:58:05.214Z,78.16
2022-08-03T08:00:33.944Z,77.79
2022-08-03T08:03:02.478Z,77.71
2022-08-03T08:05:30.846Z,77.48
2022-08-03T08:07:58.659Z,76.90
2022-08-03T08:10:26.522Z,76.94
2022-08-03T08:12:55.548Z,76.24
2022-08-03T08:15:23.993Z,75.28
2022-08-03T08:17:55.978Z,75.23
2022-08-03T08:20:35.015Z,75.00
2022-08-03T08:23:34.512Z,74.80
2022-08-03T08:25:56.674Z,74.84
2022-08-03T08:28:30.215Z,73.95
2022-08-03T08:31:00.222Z,73.78
2022-08-03T08:33:42.249Z,73.72
2022-08-03T08:36:15.983Z,73.42
2022-08-03T08:38:45.142Z,73.41
2022-08-03T08:41:15.010Z,73.31
2022-08-03T08:43:43.709Z,72.61
2022-08-03T08:46:23.474Z,72.44
2022-08-03T08:48:54.579Z,72.48
2022-08-03T08:51:50.461Z,72.44
2022-08-03T08:54:22.563Z,72.08
2022-08-03T08:56:52.636Z,71.98
2022-08-03T08:59:21.922Z,71.43
2022-08-03T09:01:49.721Z,70.91
2022-08-03T09:04:18.035Z,71.18
2022-08-03T09:06:58.853Z,70.75
2022-08-03T09:10:11.949Z,70.15
2022-08-03T09:12:41.195Z,70.13
2022-08-03T09:15:33.195Z,70.41
2022-08-03T09:18:04.174Z,70.02
2022-08-03T09:20:34.983Z,69.56
2022-08-03T09:23:26.319Z,69.86
2022-08-03T09:26:00.088Z,70.22
2022-08-03T09:29:00.594Z,70.02
2022-08-03T09:31:37.289Z,70.51
2022-08-03T09:34:14.539Z,70.31
2022-08-03T09:36:50.151Z,69.74
2022-08-03T09:39:40.433Z,69.66
2022-08-03T09:42:18.667Z,69.17
2022-08-03T09:44:52.397Z,69.03
2022-08-03T09:47:37.557Z,68.61
2022-08-03T09:50:12.959Z,68.17
2022-08-03T09:52:49.737Z,68.10
2022-08-03T09:56:32.916Z,68.03
2022-08-03T09:58:11.304Z,68.03
2022-08-03T10:00:55.922Z,67.95
2022-08-03T10:03:26.989Z,68.09
2022-08-03T10:05:59.766Z,68.02
2022-08-03T10:08:28.014Z,68.28
2022-08-03T10:10:57.883Z,68.57
2022-08-03T10:13:25.714Z,68.67
2022-08-03T10:16:24.146Z,68.66
2022-08-03T10:18:41.201Z,68.71
2022-08-03T10:21:16.569Z,68.96
2022-08-03T10:23:44.689Z,69.09
2022-08-03T10:26:19.014Z,69.31
2022-08-03T10:28:50.547Z,69.34
2022-08-03T10:31:22.256Z,69.50
2022-08-03T10:33:55.452Z,69.52
2022-08-03T10:36:27.354Z,69.63
2022-08-03T10:38:57.248Z,69.46
2022-08-03T10:41:32.418Z,69.49
2022-08-03T10:44:13.298Z,69.53
2022-08-03T10:46:45.206Z,69.34
2022-08-03T10:49:25.473Z,69.33
2022-08-03T10:52:13.441Z,68.97
2022-08-03T10:55:11.855Z,69.00
2022-08-03T10:57:58.506Z,68.73
2022-08-03T11:00:30.289Z,68.80
2022-08-03T11:03:14.021Z,67.93
2022-08-03T11:05:43.764Z,67.39
2022-08-03T11:08:30.987Z,67.17
2022-08-03T11:11:03.538Z,66.65
2022-08-03T11:13:33.695Z,66.28
2022-08-03T11:16:21.855Z,65.91
2022-08-03T11:19:01.699Z,65.15
2022-08-03T11:21:51.657Z,65.06
2022-08-03T11:24:37.593Z,65.18
2022-08-03T11:27:14.324Z,65.26
2022-08-03T11:30:06.710Z,65.25
2022-08-03T11:32:37.388Z,65.19
2022-08-03T11:35:16.741Z,64.72
2022-08-03T11:38:05.995Z,64.37
2022-08-03T11:40:39.869Z,63.76
2022-08-03T11:43:21.949Z,63.91
2022-08-03T11:46:02.416Z,63.75
2022-08-03T11:48:43.837Z,63.46
2022-08-03T11:51:22.858Z,63.23
2022-08-03T11:54:06.142Z,63.49
2022-08-03T11:56:49.632Z,63.55
2022-08-03T11:59:21.806Z,63.28
2022-08-03T12:01:50.907Z,63.13
2022-08-03T12:04:18.717Z,63.00
2022-08-03T12:07:01.940Z,62.73
2022-08-03T12:09:29.660Z,62.37
2022-08-03T12:12:00.493Z,62.20
2022-08-03T12:14:48.577Z,61.45
2022-08-03T12:17:18.695Z,62.00
2022-08-03T12:19:47.088Z,62.14
2022-08-03T12:22:16.778Z,62.10
2022-08-03T12:24:47.160Z,62.41
2022-08-03T12:27:27.748Z,61.98
2022-08-03T12:29:59.269Z,61.45
2022-08-03T12:32:29.767Z,61.63
2022-08-03T12:35:01.278Z,61.82
2022-08-03T12:37:30.571Z,61.97
2022-08-03T12:40:07.756Z,61.74
2022-08-03T12:42:40.180Z,61.58
2022-08-03T12:45:26.284Z,60.94
2022-08-03T12:47:59.907Z,61.23
2022-08-03T12:50:34.887Z,61.03
2022-08-03T12:53:08.009Z,61.18
2022-08-03T12:55:56.494Z,60.66
2022-08-03T12:58:34.119Z,60.58
2022-08-03T13:01:09.677Z,60.00
2022-08-03T13:03:50.281Z,60.28
2022-08-03T13:06:25.725Z,60.80
2022-08-03T13:09:07.862Z,60.60
2022-08-03T13:11:58.079Z,60.55
2022-08-03T13:14:23.914Z,60.36
2022-08-03T13:16:51.881Z,60.28
2022-08-03T13:19:19.723Z,60.06
2022-08-03T13:21:53.783Z,59.98
2022-08-03T13:24:33.798Z,59.30
2022-08-03T13:27:58.910Z,59.34
2022-08-03T13:29:50.885Z,59.58
2022-08-03T13:32:19.575Z,59.62
2022-08-03T13:34:47.551Z,59.66
2022-08-03T13:37:15.994Z,59.88
2022-08-03T13:39:57.339Z,59.63
2022-08-03T13:42:30.964Z,60.23
2022-08-03T13:45:00.371Z,60.16
2022-08-03T13:47:28.458Z,60.63
2022-08-03T13:50:01.826Z,60.73
2022-08-03T13:52:33.460Z,60.67
2022-08-03T13:55:02.052Z,60.24
2022-08-03T13:58:03.904Z,60.25
2022-08-03T14:00:27.946Z,59.95
2022-08-03T14:03:05.261Z,60.31
2022-08-03T14:05:38.724Z,59.75
2022-08-03T14:08:07.954Z,59.47
2022-08-03T14:10:38.469Z,59.73
2022-08-03T14:13:07.421Z,60.09
2022-08-03T14:15:37.436Z,60.18
2022-08-03T14:18:12.813Z,60.09
2022-08-03T14:20:49.996Z,60.04
2022-08-03T14:23:19.671Z,60.46
2022-08-03T14:25:51.629Z,60.86
2022-08-03T14:28:23.131Z,60.83
2022-08-03T14:30:56.058Z,60.91
2022-08-03T14:33:24.528Z,60.88
2022-08-03T14:35:53.366Z,61.00
2022-08-03T14:38:22.223Z,61.14
2022-08-03T14:40:51.353Z,60.76
2022-08-03T14:43:22.334Z,60.35
2022-08-03T14:45:53.375Z,60.68
2022-08-03T14:50:33.568Z,60.86
2022-08-03T14:51:10.903Z,61.60
2022-08-03T14:53:38.652Z,61.84
2022-08-03T14:56:10.135Z,62.24
2022-08-03T14:58:38.733Z,62.43
2022-08-03T15:02:03.167Z,62.57
2022-08-03T15:03:55.320Z,62.71
2022-08-03T15:06:23.035Z,62.98
2022-08-03T15:09:13.609Z,62.69
2022-08-03T15:11:39.313Z,62.42
2022-08-03T15:14:09.346Z,62.09
2022-08-03T15:16:38.754Z,61.99
2022-08-03T15:20:00.818Z,61.86
2022-08-03T15:21:54.539Z,61.74
2022-08-03T15:24:22.325Z,62.08
2022-08-03T15:26:52.360Z,61.49
2022-08-03T15:30:05.356Z,61.18
2022-08-03T15:32:09.634Z,60.57
2022-08-03T15:34:37.600Z,60.46
2022-08-03T15:37:16.243Z,60.16
2022-08-03T15:39:59.053Z,59.81
2022-08-03T15:42:30.510Z,59.49
2022-08-03T15:44:59.128Z,59.44
2022-08-03T15:47:27.451Z,59.67
2022-08-03T15:49:55.258Z,58.91
2022-08-03T15:52:23.098Z,58.79
2022-08-03T15:54:50.945Z,58.71
2022-08-03T15:57:19.209Z,59.07
2022-08-03T15:59:47.614Z,59.42
2022-08-03T16:02:16.198Z,59.60
2022-08-03T16:04:43.980Z,59.52
2022-08-03T16:07:12.775Z,59.56
2022-08-03T16:09:42.831Z,59.77
2022-08-03T16:12:16.384Z,59.99
2022-08-03T16:14:52.712Z,59.76
2022-08-03T16:17:22.246Z,59.54
2022-08-03T16:19:54.113Z,59.63
2022-08-03T16:22:24.825Z,59.45
2022-08-03T16:24:54.611Z,59.01
2022-08-03T16:27:56.853Z,58.40
2022-08-03T16:30:15.292Z,58.00
2022-08-03T16:32:45.404Z,57.97
2022-08-03T16:35:19.560Z,58.08
2022-08-03T16:37:54.636Z,58.58
2022-08-03T16:40:25.127Z,58.87
2022-08-03T16:42:52.976Z,59.30
2022-08-03T16:45:21.147Z,59.77
2022-08-03T16:47:49.085Z,59.96
2022-08-03T16:50:35.313Z,60.19
2022-08-03T16:53:16.438Z,60.39
2022-08-03T16:55:53.922Z,60.45
2022-08-03T16:58:41.482Z,60.69
2022-08-03T17:01:22.444Z,60.90
2022-08-03T17:04:04.874Z,61.35
2022-08-03T17:06:45.087Z,61.77
2022-08-03T17:09:20.816Z,62.09
2022-08-03T17:11:50.995Z,62.25
2022-08-03T17:14:28.369Z,62.42
2022-08-03T17:17:03.700Z,62.74
2022-08-03T17:19:34.966Z,62.87
2022-08-03T17:22:12.334Z,63.23
2022-08-03T17:25:07.618Z,63.33
2022-08-03T17:28:49.565Z,63.43
2022-08-03T17:30:46.505Z,63.22
2022-08-03T17:33:20.669Z,63.29
2022-08-03T17:35:53.277Z,63.24
2022-08-03T17:38:24.961Z,63.08
2022-08-03T17:41:00.170Z,62.95
2022-08-03T17:44:12.957Z,63.13
2022-08-03T17:46:16.345Z,63.31
2022-08-03T17:48:47.614Z,63.69
2022-08-03T17:51:46.515Z,63.91
2022-08-03T17:54:28.478Z,64.24
2022-08-03T17:57:22.504Z,64.56
2022-08-03T18:00:25.944Z,64.87
2022-08-03T18:03:31.618Z,65.08
2022-08-03T18:06:27.881Z,65.38
2022-08-03T18:09:00.178Z,65.64
2022-08-03T18:11:35.531Z,65.75
2022-08-03T18:14:57.413Z,65.83
2022-08-03T18:17:55.337Z,65.92
2022-08-03T18:20:34.567Z,66.00
2022-08-03T18:23:25.393Z,66.05
2022-08-03T18:26:06.721Z,66.22
2022-08-03T18:28:38.377Z,66.29
2022-08-03T18:31:09.810Z,66.14
2022-08-03T18:34:18.323Z,66.09
2022-08-03T18:36:32.926Z,66.37
2022-08-03T18:39:12.018Z,66.47
2022-08-03T18:41:46.134Z,66.74
2022-08-03T18:44:52.498Z,66.98
2022-08-03T18:47:16.266Z,66.92
2022-08-03T18:50:06.288Z,66.92
2022-08-03T18:52:56.861Z,66.81
2022-08-03T18:55:35.319Z,66.72
2022-08-03T18:58:03.286Z,66.39
2022-08-03T19:00:42.403Z,66.24
2022-08-03T19:03:43.414Z,66.18
2022-08-03T19:06:23.077Z,65.71
2022-08-03T19:09:13.012Z,65.78
2022-08-03T19:12:11.025Z,65.52
2022-08-03T19:14:52.495Z,65.61
2022-08-03T19:17:22.658Z,65.65
2022-08-03T19:19:58.787Z,65.35
2022-08-03T19:22:30.961Z,65.41
2022-08-03T19:25:04.762Z,65.53
2022-08-03T19:27:35.184Z,65.76
2022-08-03T19:30:16.805Z,65.97
2022-08-03T19:32:50.921Z,66.09
2022-08-03T19:35:54.799Z,66.20
2022-08-03T19:38:09.708Z,66.54
2022-08-03T19:40:50.970Z,66.92
2022-08-03T19:43:52.713Z,67.19
2022-08-03T19:46:30.201Z,67.59
2022-08-03T19:49:15.228Z,67.97
2022-08-03T19:52:01.255Z,68.12
2022-08-03T19:57:36.568Z,68.79
2022-08-03T20:00:11.884Z,69.19
2022-08-03T20:02:41.026Z,69.28
2022-08-03T20:05:14.982Z,69.57
2022-08-03T20:07:47.734Z,69.88
2022-08-03T20:10:19.835Z,70.05
2022-08-03T20:12:49.657Z,70.26
2022-08-03T20:15:22.236Z,70.68
2022-08-03T20:17:55.343Z,70.99
2022-08-03T20:20:31.235Z,71.13
2022-08-03T20:23:02.709Z,71.28
2022-08-03T20:25:57.020Z,71.62
2022-08-03T20:28:50.147Z,71.81
2022-08-03T20:31:25.188Z,71.93
2022-08-03T20:34:00.813Z,72.19
2022-08-03T20:36:28.958Z,72.29
2022-08-03T20:38:58.774Z,72.50
2022-08-03T20:41:27.445Z,72.64
2022-08-03T20:43:55.268Z,72.75
2022-08-03T20:46:30.905Z,72.96
2022-08-03T20:49:03.904Z,73.12
2022-08-03T20:51:50.083Z,73.25
2022-08-03T20:54:29.578Z,73.51
2022-08-03T20:57:03.612Z,73.71
2022-08-03T20:59:50.675Z,74.08
2022-08-03T21:02:29.976Z,74.33
2022-08-03T21:05:08.544Z,74.35
2022-08-03T21:10:39.270Z,74.91
2022-08-03T21:13:03.182Z,68.48
2022-08-03T21:13:08.099Z,74.55
2022-08-03T21:13:47.262Z,75.05
2022-08-03T21:16:17.179Z,75.34
2022-08-03T21:18:51.075Z,75.02
2022-08-03T21:21:22.302Z,73.92
2022-08-03T21:23:54.750Z,73.15
2022-08-03T21:26:26.142Z,72.81
2022-08-03T21:28:56.750Z,72.49
2022-08-03T21:31:26.804Z,72.19
2022-08-03T21:34:03.406Z,72.02
2022-08-03T21:36:35.949Z,71.97
2022-08-03T21:39:08.316Z,71.62
2022-08-03T21:41:39.594Z,71.42
2022-08-03T21:44:08.133Z,71.02
2022-08-03T21:46:40.331Z,70.72
2022-08-03T21:49:51.711Z,70.55
2022-08-03T21:52:05.635Z,70.56
2022-08-03T21:54:42.163Z,70.39
2022-08-03T21:57:24.188Z,70.22
2022-08-03T22:00:02.063Z,70.09
2022-08-03T22:02:32.054Z,69.90
2022-08-03T22:05:00.659Z,69.87
2022-08-03T22:07:34.632Z,69.80
2022-08-03T22:10:06.412Z,69.66
2022-08-03T22:12:35.616Z,69.59
2022-08-03T22:15:11.339Z,69.57
2022-08-03T22:17:55.709Z,69.85
2022-08-03T22:20:25.814Z,70.02
2022-08-03T22:22:56.930Z,69.98
2022-08-03T22:25:31.139Z,69.83
2022-08-03T22:28:09.082Z,70.02
2022-08-03T22:30:39.306Z,70.22
2022-08-03T22:33:11.710Z,69.81
2022-08-03T22:35:47.709Z,69.80
2022-08-03T22:38:18.685Z,69.75
2022-08-03T22:40:49.784Z,69.94
2022-08-03T22:43:17.703Z,70.01
2022-08-03T22:46:09.616Z,70.15
2022-08-03T22:48:41.221Z,70.26
2022-08-03T22:51:10.111Z,70.40
2022-08-03T22:53:39.336Z,70.68
2022-08-03T22:56:07.743Z,70.84
2022-08-03T22:58:35.492Z,71.30
2022-08-03T23:01:08.520Z,71.52
2022-08-03T23:03:59.163Z,71.58
2022-08-03T23:06:38.352Z,71.34
2022-08-03T23:09:11.211Z,71.09
2022-08-03T23:11:45.189Z,70.49
2022-08-03T23:14:18.435Z,70.17
2022-08-03T23:16:47.523Z,69.81
2022-08-03T23:19:25.712Z,69.91
2022-08-03T23:22:03.565Z,69.65
2022-08-03T23:24:36.611Z,69.78
2022-08-03T23:27:08.061Z,69.60
2022-08-03T23:29:37.934Z,69.21
2022-08-03T23:32:07.027Z,69.19
2022-08-03T23:34:57.673Z,68.88
2022-08-03T23:37:26.490Z,68.94
2022-08-03T23:39:57.263Z,68.89
2022-08-03T23:42:26.087Z,68.80
2022-08-03T23:45:05.445Z,68.18
2022-08-03T23:47:46.519Z,68.36
2022-08-03T23:50:16.234Z,68.21
2022-08-03T23:52:59.933Z,68.14
2022-08-03T23:56:12.609Z,68.07
2022-08-03T23:59:09.010Z,67.94
